Time;durP1;ratioP1;P1;durP2;ratioP2;P2;SDS_P1;SDS_P2;PMS_P1;PMS_P2;Temp;Humidity;BMP_temperature;BMP_pressure;BME280_temperature;BME280_humidity;BME280_pressure;Samples;Min_cycle;Max_cycle;Signal;HPM_P1;HPM_P2
2023/09/21 00:00:59;;;;;;;5.73;3.83;;;;;;;17.51;70.05;97054.56;5069057;28;20456;-72
2023/09/21 00:03:28;;;;;;;4.97;4.30;;;;;;;17.50;69.78;97047.44;5070610;28;20497;-72
2023/09/21 00:05:56;;;;;;;5.40;3.93;;;;;;;17.43;70.08;97043.06;5069129;28;20594;-72
2023/09/21 00:08:24;;;;;;;6.97;4.40;;;;;;;17.41;70.13;97045.22;5071318;28;21084;-72
2023/09/21 00:10:51;;;;;;;4.43;4.00;;;;;;;17.25;70.77;97038.06;5070049;28;20451;-72
2023/09/21 00:13:18;;;;;;;4.20;3.80;;;;;;;17.30;70.66;97038.09;5071982;28;20657;-72
2023/09/21 00:15:47;;;;;;;5.63;4.03;;;;;;;17.22;70.91;97035.06;5068586;28;20466;-72
2023/09/21 00:18:14;;;;;;;4.37;3.97;;;;;;;17.24;70.85;97030.13;5070874;28;20853;-72
2023/09/21 00:20:48;;;;;;;4.23;3.80;;;;;;;17.29;70.43;97033.69;5072309;28;21019;-72
2023/09/21 00:23:15;;;;;;;4.17;3.87;;;;;;;17.24;70.74;97032.88;5072020;28;20456;-72
2023/09/21 00:25:42;;;;;;;4.10;3.80;;;;;;;17.25;70.67;97040.81;5068746;28;20490;-72
2023/09/21 00:28:12;;;;;;;4.43;3.90;;;;;;;17.12;71.05;97024.91;5067683;28;20482;-72
2023/09/21 00:30:40;;;;;;;6.27;3.80;;;;;;;17.04;71.65;97022.69;5070600;28;20514;-72
2023/09/21 00:33:08;;;;;;;4.23;3.83;;;;;;;16.93;72.19;97021.00;5070293;28;20460;-72
2023/09/21 00:35:39;;;;;;;4.40;4.00;;;;;;;16.96;72.13;97018.56;5069565;28;20457;-72
2023/09/21 00:38:08;;;;;;;4.40;4.00;;;;;;;16.98;71.86;97021.03;5071017;28;20575;-72
2023/09/21 00:40:38;;;;;;;6.10;4.30;;;;;;;16.93;72.17;97010.91;5071357;28;20507;-72
2023/09/21 00:43:05;;;;;;;4.40;4.00;;;;;;;16.90;72.22;97016.91;5070843;28;20486;-72
2023/09/21 00:45:32;;;;;;;5.20;4.33;;;;;;;16.95;72.23;97010.63;5067921;28;20493;-72
2023/09/21 00:48:00;;;;;;;4.80;4.10;;;;;;;16.93;72.41;97010.06;5069890;28;21016;-72
2023/09/21 00:50:28;;;;;;;6.00;3.97;;;;;;;16.86;72.65;97006.78;5070710;28;21244;-72
2023/09/21 00:52:56;;;;;;;4.17;3.87;;;;;;;16.78;72.77;97003.47;5070268;28;20537;-72
2023/09/21 00:55:24;;;;;;;5.07;4.10;;;;;;;16.67;73.32;96996.31;5068591;28;20806;-72
2023/09/21 00:57:55;;;;;;;4.33;3.93;;;;;;;16.60;73.66;96990.22;5068602;28;20484;-72
2023/09/21 01:00:26;;;;;;;4.73;4.33;;;;;;;16.63;73.70;96999.81;5069364;28;21008;-72
2023/09/21 01:02:53;;;;;;;5.67;4.17;;;;;;;16.60;73.83;96998.44;5068988;28;20465;-72
2023/09/21 01:05:21;;;;;;;4.60;4.17;;;;;;;16.49;74.29;96991.28;5069522;28;20528;-72
2023/09/21 01:07:50;;;;;;;5.27;4.33;;;;;;;16.51;74.26;96997.31;5067645;28;21067;-72
2023/09/21 01:10:21;;;;;;;5.43;4.30;;;;;;;16.50;74.41;96998.41;5068285;28;20523;-72
2023/09/21 01:12:49;;;;;;;4.60;4.20;;;;;;;16.51;74.45;96991.84;5071074;28;20467;-72
2023/09/21 01:15:17;;;;;;;5.43;4.40;;;;;;;16.52;74.40;96998.97;5068453;28;20466;-71
2023/09/21 01:17:45;;;;;;;4.40;3.93;;;;;;;16.34;75.11;96992.03;5069597;28;20485;-72
2023/09/21 01:20:22;;;;;;;5.00;4.47;;;;;;;16.48;74.73;96995.13;5066779;28;20544;-72
2023/09/21 01:22:58;;;;;;;4.90;4.47;;;;;;;16.59;74.46;96988.59;5070395;28;20461;-72
2023/09/21 01:25:27;;;;;;;5.17;4.67;;;;;;;16.52;74.52;96989.94;5067949;28;20584;-72
2023/09/21 01:27:54;;;;;;;4.90;4.40;;;;;;;16.47;74.95;96985.28;5069872;28;20864;-72
2023/09/21 01:30:21;;;;;;;4.67;4.27;;;;;;;16.34;75.43;96981.09;5069603;28;20446;-73
2023/09/21 01:32:48;;;;;;;4.87;4.30;;;;;;;16.38;75.26;96982.22;5069112;28;20533;-72
2023/09/21 01:35:16;;;;;;;4.93;4.43;;;;;;;16.36;75.30;96987.13;5067580;28;20961;-72
2023/09/21 01:37:43;;;;;;;4.90;4.40;;;;;;;16.47;75.06;96982.53;5068364;28;20557;-72
2023/09/21 01:40:15;;;;;;;4.33;3.93;;;;;;;16.41;75.20;96980.88;5070116;28;20533;-72
2023/09/21 01:42:44;;;;;;;4.80;4.23;;;;;;;16.21;76.09;96970.66;5069251;28;20535;-72
2023/09/21 01:45:14;;;;;;;4.97;4.50;;;;;;;16.30;75.93;96969.06;5066740;28;20518;-72
2023/09/21 01:47:41;;;;;;;4.83;4.43;;;;;;;16.23;76.05;96973.13;5068747;28;20528;-72
2023/09/21 01:50:11;;;;;;;4.93;4.53;;;;;;;16.36;75.72;96962.53;5068969;28;21031;-71
2023/09/21 01:52:38;;;;;;;4.50;4.20;;;;;;;16.46;75.48;96959.88;5065944;28;20965;-72
2023/09/21 01:55:07;;;;;;;4.57;3.87;;;;;;;16.50;75.09;96956.63;5068120;28;20481;-72
2023/09/21 01:57:34;;;;;;;5.20;4.17;;;;;;;16.43;75.13;96954.94;5068847;28;21054;-72
2023/09/21 02:00:09;;;;;;;4.47;4.03;;;;;;;16.38;75.68;96959.56;5067203;28;20837;-72
2023/09/21 02:02:35;;;;;;;3.97;3.67;;;;;;;16.33;75.94;96959.53;5069615;28;20454;-71
2023/09/21 02:05:04;;;;;;;4.07;3.77;;;;;;;16.40;75.59;96962.84;5066010;28;20474;-72
2023/09/21 02:07:31;;;;;;;4.33;3.67;;;;;;;16.17;76.36;96960.53;5067700;28;20484;-72
2023/09/21 02:09:58;;;;;;;4.03;3.70;;;;;;;16.10;76.64;96958.88;5066012;28;20550;-72
2023/09/21 02:12:25;;;;;;;3.97;3.57;;;;;;;16.16;76.56;96956.16;5069309;28;20526;-72
2023/09/21 02:14:52;;;;;;;3.83;3.23;;;;;;;16.12;76.71;96956.69;5066502;28;20458;-72
2023/09/21 02:17:23;;;;;;;3.47;3.20;;;;;;;15.99;77.35;96945.41;5068923;28;20500;-72
2023/09/21 02:19:51;;;;;;;3.90;3.60;;;;;;;16.08;77.15;96941.09;5068495;28;20549;-72
2023/09/21 02:22:20;;;;;;;4.43;4.03;;;;;;;15.92;77.75;96936.66;5068165;28;20453;-72
2023/09/21 02:24:47;;;;;;;8.53;4.70;;;;;;;15.81;78.56;96930.28;5065256;28;20879;-72
2023/09/21 02:27:15;;;;;;;5.10;4.70;;;;;;;15.81;78.27;96935.75;5068772;28;21019;-72
2023/09/21 02:29:42;;;;;;;4.50;4.20;;;;;;;15.92;78.19;96931.97;5069465;28;20438;-72
2023/09/21 02:32:09;;;;;;;4.80;3.67;;;;;;;16.01;77.69;96929.59;5067330;28;20470;-72
2023/09/21 02:34:37;;;;;;;5.40;4.90;;;;;;;16.05;77.38;96923.34;5067689;28;21054;-71
2023/09/21 02:37:06;;;;;;;5.23;4.30;;;;;;;16.05;77.40;96917.06;5067173;28;20474;-72
2023/09/21 02:39:34;;;;;;;4.80;4.10;;;;;;;16.03;77.60;96930.97;5067970;28;20496;-72
2023/09/21 02:42:01;;;;;;;5.30;4.20;;;;;;;16.10;77.57;96917.91;5066816;28;20800;-72
2023/09/21 02:44:29;;;;;;;4.80;4.40;;;;;;;16.09;77.51;96921.72;5067854;28;20477;-72
2023/09/21 02:46:55;;;;;;;3.70;3.40;;;;;;;16.04;77.88;96915.41;5066673;28;20486;-72
2023/09/21 02:49:22;;;;;;;5.13;3.83;;;;;;;16.13;77.32;96903.75;5066559;28;20526;-72
2023/09/21 02:51:52;;;;;;;4.00;3.60;;;;;;;16.06;77.35;96908.59;5067760;28;20556;-72
2023/09/21 02:54:19;;;;;;;3.50;3.30;;;;;;;16.00;77.48;96909.66;5066020;28;20504;-72
2023/09/21 02:56:48;;;;;;;3.73;3.40;;;;;;;15.91;77.87;96911.28;5065345;28;20557;-72
2023/09/21 02:59:15;;;;;;;3.30;3.00;;;;;;;15.81;78.09;96907.66;5067678;28;20545;-72
2023/09/21 03:01:42;;;;;;;4.03;3.00;;;;;;;15.97;77.39;96904.72;5066102;28;20465;-72
2023/09/21 03:04:11;;;;;;;2.80;2.60;;;;;;;16.00;77.49;96897.91;5065721;28;20470;-72
2023/09/21 03:06:38;;;;;;;2.87;2.63;;;;;;;15.94;77.80;96902.53;5067891;28;20500;-72
2023/09/21 03:09:08;;;;;;;2.73;2.50;;;;;;;15.89;78.13;96898.97;5068925;28;20961;-72
2023/09/21 03:11:35;;;;;;;3.30;3.10;;;;;;;15.71;78.93;96900.22;5066861;28;20462;-72
2023/09/21 03:14:04;;;;;;;3.47;2.80;;;;;;;15.68;79.16;96898.00;5066920;28;20446;-72
2023/09/21 03:16:32;;;;;;;6.00;3.13;;;;;;;15.75;79.22;96895.88;5064338;28;20543;-72
2023/09/21 03:18:59;;;;;;;3.20;2.90;;;;;;;15.56;79.94;96894.63;5067379;28;20529;-72
2023/09/21 03:21:26;;;;;;;3.27;2.80;;;;;;;15.43;80.62;96894.00;5068557;28;20451;-72
2023/09/21 03:23:53;;;;;;;2.90;2.70;;;;;;;15.58;79.99;96889.78;5066581;28;20533;-71
2023/09/21 03:26:21;;;;;;;3.20;3.00;;;;;;;15.52;80.11;96890.78;5066075;28;20487;-72
2023/09/21 03:28:49;;;;;;;3.10;2.90;;;;;;;15.32;81.41;96886.81;5068447;28;20462;-72
2023/09/21 03:31:15;;;;;;;3.07;2.83;;;;;;;15.36;81.38;96887.09;5067594;28;20482;-72
2023/09/21 03:33:43;;;;;;;4.60;3.30;;;;;;;15.25;81.84;96894.41;5065302;28;20543;-72
2023/09/21 03:36:13;;;;;;;3.40;3.10;;;;;;;15.13;82.47;96877.38;5067326;28;20980;-72
2023/09/21 03:38:40;;;;;;;3.07;2.87;;;;;;;15.18;82.34;96876.63;5067562;28;20485;-72
2023/09/21 03:41:07;;;;;;;3.67;3.30;;;;;;;15.14;82.82;96876.31;5066491;28;20557;-72
2023/09/21 03:43:36;;;;;;;3.07;2.80;;;;;;;15.05;83.11;96881.41;5067159;28;20454;-72
2023/09/21 03:46:02;;;;;;;3.73;2.93;;;;;;;14.98;83.70;96875.34;5067502;28;20494;-72
2023/09/21 03:48:35;;;;;;;5.63;3.40;;;;;;;15.03;83.64;96874.56;5068844;28;20438;-72
2023/09/21 03:51:05;;;;;;;3.43;3.10;;;;;;;15.03;83.38;96869.13;5065157;28;20481;-72
2023/09/21 03:53:33;;;;;;;3.10;2.80;;;;;;;15.08;83.01;96866.44;5064597;28;20470;-72
2023/09/21 03:56:01;;;;;;;3.10;2.80;;;;;;;15.28;82.65;96873.94;5065020;28;20469;-72
2023/09/21 03:58:28;;;;;;;3.40;3.10;;;;;;;15.21;82.98;96885.09;5067006;28;20450;-72
2023/09/21 04:01:04;;;;;;;3.23;3.03;;;;;;;15.34;82.46;96868.28;5065435;28;20504;-72
2023/09/21 04:03:31;;;;;;;3.63;3.33;;;;;;;15.35;82.08;96864.47;5065719;28;20449;-71
2023/09/21 04:06:01;;;;;;;3.93;3.60;;;;;;;15.24;82.52;96865.50;5065609;28;20652;-72
2023/09/21 04:08:28;;;;;;;3.93;3.57;;;;;;;15.28;82.57;96863.88;5066428;28;20454;-72
2023/09/21 04:10:59;;;;;;;4.80;3.33;;;;;;;15.34;82.12;96862.81;5064502;28;20462;-73
2023/09/21 04:13:26;;;;;;;4.00;3.50;;;;;;;15.43;81.91;96864.00;5065228;28;20469;-73
2023/09/21 04:15:52;;;;;;;4.40;3.83;;;;;;;15.37;82.08;96862.31;5066378;28;21053;-73
2023/09/21 04:18:20;;;;;;;5.53;4.07;;;;;;;15.27;82.36;96858.72;5068239;28;20565;-72
2023/09/21 04:20:47;;;;;;;4.60;4.30;;;;;;;15.45;82.07;96859.09;5067454;28;20817;-73
2023/09/21 04:23:14;;;;;;;4.47;3.90;;;;;;;15.35;82.36;96859.03;5064632;28;20512;-73
2023/09/21 04:25:47;;;;;;;3.83;3.53;;;;;;;15.44;82.13;96862.09;5064448;28;20567;-73
2023/09/21 04:28:14;;;;;;;4.60;3.97;;;;;;;15.41;82.29;96847.06;5065994;28;20896;-73
2023/09/21 04:30:41;;;;;;;5.33;4.30;;;;;;;15.35;82.49;96853.56;5063659;28;20453;-73
2023/09/21 04:33:08;;;;;;;4.20;3.83;;;;;;;15.41;82.04;96836.16;5059715;28;20446;-73
2023/09/21 04:35:36;;;;;;;4.60;4.07;;;;;;;15.57;81.44;96845.31;5065494;28;20516;-73
2023/09/21 04:38:03;;;;;;;4.43;3.77;;;;;;;15.67;81.12;96847.25;5070939;28;21053;-72
2023/09/21 04:40:30;;;;;;;4.90;4.40;;;;;;;15.71;80.48;96851.09;5071426;28;20464;-73
2023/09/21 04:42:57;;;;;;;5.10;3.90;;;;;;;15.78;80.50;96841.59;5069671;28;20908;-73
2023/09/21 04:45:26;;;;;;;4.30;4.00;;;;;;;15.73;80.58;96848.94;5068578;28;20957;-73
2023/09/21 04:48:00;;;;;;;4.47;4.07;;;;;;;15.68;81.04;96847.00;5066796;28;20454;-72
2023/09/21 04:50:27;;;;;;;4.40;4.00;;;;;;;15.83;80.41;96845.44;5069345;28;20505;-73
2023/09/21 04:52:55;;;;;;;5.17;4.03;;;;;;;15.91;80.17;96844.94;5070942;28;20458;-72
2023/09/21 04:55:22;;;;;;;4.30;3.90;;;;;;;15.77;80.63;96839.97;5071185;28;20442;-73
2023/09/21 04:57:51;;;;;;;4.40;4.10;;;;;;;15.80;80.70;96835.88;5070343;28;20454;-74
2023/09/21 05:00:18;;;;;;;5.67;4.70;;;;;;;15.65;81.35;96838.50;5070304;28;20478;-72
2023/09/21 05:02:45;;;;;;;4.90;4.33;;;;;;;15.65;81.36;96846.69;5054602;28;20458;-72
2023/09/21 05:05:13;;;;;;;5.33;4.77;;;;;;;15.59;81.62;96842.31;5055567;28;20533;-70
2023/09/21 05:07:40;;;;;;;5.07;4.20;;;;;;;15.66;81.85;96831.97;5069424;28;20494;-69
2023/09/21 05:10:11;;;;;;;4.73;3.90;;;;;;;15.72;82.16;96839.09;5064668;28;21040;-69
2023/09/21 05:12:38;;;;;;;5.30;4.53;;;;;;;15.69;82.95;96842.38;5060932;28;20515;-70
2023/09/21 05:15:08;;;;;;;5.57;5.07;;;;;;;15.46;84.46;96838.94;5063359;28;20457;-69
2023/09/21 05:17:36;;;;;;;5.70;5.20;;;;;;;15.35;85.35;96839.13;5064467;28;20466;-69
2023/09/21 05:20:04;;;;;;;5.97;5.47;;;;;;;15.22;86.43;96837.69;5064488;28;20976;-69
2023/09/21 05:22:32;;;;;;;6.87;5.30;;;;;;;15.09;87.07;96829.94;5065940;28;20482;-73
2023/09/21 05:25:00;;;;;;;6.10;5.50;;;;;;;15.23;86.92;96833.88;5063376;28;20548;-72
2023/09/21 05:27:30;;;;;;;5.00;4.50;;;;;;;15.34;86.72;96835.56;5064553;28;20502;-73
2023/09/21 05:29:57;;;;;;;5.53;5.00;;;;;;;15.36;85.85;96833.41;5065602;28;20457;-74
2023/09/21 05:32:23;;;;;;;4.80;4.40;;;;;;;15.41;85.41;96827.97;5061302;28;20787;-73
2023/09/21 05:34:51;;;;;;;5.20;4.70;;;;;;;15.40;85.55;96820.06;5065774;28;20490;-74
2023/09/21 05:37:18;;;;;;;4.47;4.07;;;;;;;15.44;85.04;96823.91;5066733;28;20470;-73
2023/09/21 05:39:45;;;;;;;5.17;4.70;;;;;;;15.61;83.75;96827.31;5067421;28;20469;-73
2023/09/21 05:42:15;;;;;;;5.90;4.53;;;;;;;15.65;84.07;96827.59;5068130;28;20537;-73
2023/09/21 05:44:43;;;;;;;4.93;4.53;;;;;;;15.75;84.44;96819.47;5065351;28;20537;-73
2023/09/21 05:47:11;;;;;;;4.80;4.40;;;;;;;15.79;83.95;96820.59;5065404;28;20811;-73
2023/09/21 05:49:39;;;;;;;6.03;4.73;;;;;;;15.78;84.35;96818.97;5062515;28;21014;-73
2023/09/21 05:52:11;;;;;;;4.80;4.40;;;;;;;15.84;84.13;96815.16;5062138;28;20515;-73
2023/09/21 05:54:38;;;;;;;5.90;4.20;;;;;;;15.85;84.38;96814.09;5068185;28;20555;-73
2023/09/21 05:57:05;;;;;;;5.13;4.60;;;;;;;15.71;84.62;96815.63;5067888;28;20989;-74
2023/09/21 05:59:33;;;;;;;5.57;5.07;;;;;;;15.76;84.65;96811.03;5065285;28;21028;-72
2023/09/21 06:02:02;;;;;;;5.53;4.40;;;;;;;15.81;84.10;96812.16;5059916;28;20838;-74
2023/09/21 06:04:30;;;;;;;5.30;4.30;;;;;;;15.69;85.08;96815.09;5044119;28;20462;-75
2023/09/21 06:06:58;;;;;;;5.00;4.00;;;;;;;15.78;84.60;96808.88;5055030;28;20625;-74
2023/09/21 06:09:25;;;;;;;5.03;4.13;;;;;;;15.89;83.77;96815.19;5053505;28;20565;-74
2023/09/21 06:11:52;;;;;;;5.17;3.90;;;;;;;16.00;82.92;96811.41;5060885;28;20454;-74
2023/09/21 06:14:20;;;;;;;4.50;4.07;;;;;;;16.09;82.46;96811.72;5058922;28;20474;-75
2023/09/21 06:16:49;;;;;;;4.03;3.73;;;;;;;16.15;82.73;96812.56;5061325;28;20476;-75
2023/09/21 06:19:18;;;;;;;4.63;4.23;;;;;;;16.08;83.39;96819.09;5062054;28;20451;-74
2023/09/21 06:21:45;;;;;;;5.13;4.73;;;;;;;15.99;84.39;96808.94;5065810;28;20469;-75
2023/09/21 06:24:12;;;;;;;4.10;3.80;;;;;;;16.13;83.88;96816.38;5061998;28;20498;-75
2023/09/21 06:26:39;;;;;;;4.30;3.90;;;;;;;16.05;83.88;96819.63;5055165;28;21051;-74
2023/09/21 06:29:06;;;;;;;5.07;4.20;;;;;;;15.96;83.33;96815.75;5062068;28;22342;-74
2023/09/21 06:31:33;;;;;;;4.50;4.17;;;;;;;16.11;83.02;96810.38;5052599;28;20524;-74
2023/09/21 06:34:05;;;;;;;3.93;3.63;;;;;;;16.29;82.58;96813.69;5058566;28;20816;-74
2023/09/21 06:36:37;;;;;;;4.30;3.87;;;;;;;16.28;82.23;96814.78;5055784;28;20478;-75
2023/09/21 06:39:06;;;;;;;4.10;3.80;;;;;;;16.52;81.14;96807.75;5051695;28;20450;-76
2023/09/21 06:41:33;;;;;;;4.40;3.60;;;;;;;16.38;81.14;96807.44;5049066;28;20458;-75
2023/09/21 06:44:00;;;;;;;4.40;4.00;;;;;;;16.64;80.34;96804.78;5056054;28;20466;-75
2023/09/21 06:46:26;;;;;;;4.30;3.90;;;;;;;16.66;80.06;96813.53;5050834;28;20523;-74
2023/09/21 06:48:55;;;;;;;4.33;3.83;;;;;;;16.63;79.38;96814.84;5050304;28;20450;-74
2023/09/21 06:51:25;;;;;;;4.60;4.20;;;;;;;16.49;80.76;96813.75;5053786;28;20470;-73
2023/09/21 06:53:54;;;;;;;3.97;3.27;;;;;;;16.72;80.48;96815.19;5053254;28;20519;-75
2023/09/21 06:56:23;;;;;;;3.47;3.17;;;;;;;16.82;79.46;96801.53;5057975;28;20545;-75
2023/09/21 06:58:54;;;;;;;4.43;4.00;;;;;;;16.66;79.68;96811.63;5057427;28;20532;-76
2023/09/21 07:01:26;;;;;;;5.00;3.80;;;;;;;16.69;79.45;96816.53;5051372;28;20891;-75
2023/09/21 07:03:53;;;;;;;4.00;3.70;;;;;;;16.82;79.50;96806.19;5048914;28;21017;-76
2023/09/21 07:06:20;;;;;;;4.70;4.30;;;;;;;16.98;78.76;96816.84;5060366;28;20481;-75
2023/09/21 07:08:47;;;;;;;4.73;4.30;;;;;;;16.92;78.66;96803.44;5057158;28;20458;-75
2023/09/21 07:11:18;;;;;;;4.53;3.50;;;;;;;16.97;79.38;96797.97;5056322;28;20482;-76
2023/09/21 07:13:46;;;;;;;4.07;3.77;;;;;;;17.21;76.96;96801.81;5055726;28;20462;-75
2023/09/21 07:16:13;;;;;;;4.23;3.83;;;;;;;17.55;75.86;96795.72;5061857;28;20482;-75
2023/09/21 07:18:40;;;;;;;4.43;4.03;;;;;;;17.53;76.48;96803.41;5064800;28;20450;-75
2023/09/21 07:21:07;;;;;;;6.30;4.27;;;;;;;17.58;76.25;96803.38;5059306;28;20475;-75
2023/09/21 07:23:35;;;;;;;4.03;3.67;;;;;;;17.81;76.21;96801.97;5062523;28;20462;-76
2023/09/21 07:26:02;;;;;;;4.10;3.70;;;;;;;17.99;75.35;96799.44;5065818;28;20807;-76
2023/09/21 07:28:31;;;;;;;4.73;4.10;;;;;;;18.08;73.86;96802.41;5060820;28;20497;-75
2023/09/21 07:30:58;;;;;;;4.00;3.70;;;;;;;18.33;73.12;96798.72;5062945;28;20486;-75
2023/09/21 07:33:26;;;;;;;3.90;3.60;;;;;;;18.51;72.74;96791.78;5061182;28;20508;-75
2023/09/21 07:35:53;;;;;;;4.33;3.80;;;;;;;18.60;71.92;96788.19;5057349;28;21123;-76
2023/09/21 07:38:21;;;;;;;4.77;4.37;;;;;;;18.54;71.86;96794.75;5057809;28;20540;-76
2023/09/21 07:40:48;;;;;;;6.40;4.10;;;;;;;18.36;71.89;96782.56;5059468;28;20438;-74
2023/09/21 07:43:16;;;;;;;4.20;3.67;;;;;;;18.55;72.27;96781.88;5051639;28;20459;-75
2023/09/21 07:45:46;;;;;;;5.03;4.60;;;;;;;18.94;71.45;96787.38;5058681;28;20568;-81
2023/09/21 07:48:15;;;;;;;5.03;4.00;;;;;;;19.03;70.33;96771.97;5053514;28;21071;-81
2023/09/21 07:50:43;;;;;;;5.10;4.07;;;;;;;19.04;69.94;96771.69;5054003;28;20840;-74
2023/09/21 07:53:10;;;;;;;4.80;3.80;;;;;;;19.31;68.95;96768.41;5052553;28;20458;-75
2023/09/21 07:55:37;;;;;;;4.03;3.60;;;;;;;20.09;66.74;96768.13;5057089;28;20486;-75
2023/09/21 07:58:04;;;;;;;5.70;3.53;;;;;;;20.54;65.07;96765.88;5052720;28;20479;-75
2023/09/21 08:00:31;;;;;;;5.03;3.37;;;;;;;20.29;64.84;96750.53;5049582;28;20893;-75
2023/09/21 08:02:59;;;;;;;5.40;3.83;;;;;;;20.18;65.21;96750.94;5047587;28;21035;-74
2023/09/21 08:05:30;;;;;;;4.03;3.63;;;;;;;19.83;67.20;96750.28;5054849;28;21165;-75
2023/09/21 08:07:57;;;;;;;6.20;3.63;;;;;;;20.16;66.91;96743.00;5055404;28;20986;-75
2023/09/21 08:10:24;;;;;;;4.77;4.17;;;;;;;19.57;66.78;96722.31;5054550;28;20441;-74
2023/09/21 08:12:51;;;;;;;3.70;3.40;;;;;;;19.84;67.91;96740.94;5059548;28;20458;-75
2023/09/21 08:15:21;;;;;;;3.90;3.50;;;;;;;20.70;64.54;96730.72;5061767;28;20476;-75
2023/09/21 08:17:47;;;;;;;4.57;3.53;;;;;;;21.73;61.28;96726.69;5062448;28;20461;-76
2023/09/21 08:20:15;;;;;;;3.40;3.10;;;;;;;22.99;54.21;96693.84;5060009;28;20859;-75
2023/09/21 08:22:47;;;;;;;4.03;3.33;;;;;;;23.85;53.59;96730.19;5065799;28;20571;-75
2023/09/21 08:25:14;;;;;;;4.20;2.90;;;;;;;24.91;51.00;96731.69;5053197;28;20826;-75
2023/09/21 08:27:41;;;;;;;3.20;2.83;;;;;;;24.24;51.06;96734.03;5053010;28;20497;-75
2023/09/21 08:30:09;;;;;;;3.30;3.00;;;;;;;23.93;52.53;96725.81;5056089;28;20458;-76
2023/09/21 08:32:35;;;;;;;4.50;2.90;;;;;;;23.58;53.77;96735.94;5063226;28;20545;-76
2023/09/21 08:35:02;;;;;;;6.20;3.33;;;;;;;23.60;54.82;96734.47;5061042;28;21054;-75
2023/09/21 08:37:31;;;;;;;3.83;3.27;;;;;;;23.06;56.26;96730.09;5063181;28;20992;-76
2023/09/21 08:39:58;;;;;;;3.60;3.27;;;;;;;22.48;57.44;96730.88;5061352;28;20976;-73
2023/09/21 08:42:25;;;;;;;3.53;3.23;;;;;;;22.24;58.68;96731.16;5063444;28;20537;-76
2023/09/21 08:44:52;;;;;;;3.50;3.00;;;;;;;22.58;57.82;96724.31;5067451;28;20464;-75
2023/09/21 08:47:19;;;;;;;3.50;3.20;;;;;;;22.24;58.05;96724.81;5061848;28;20488;-75
2023/09/21 08:49:47;;;;;;;3.30;3.00;;;;;;;22.22;58.25;96721.56;5058540;28;20456;-75
2023/09/21 08:52:14;;;;;;;4.57;3.10;;;;;;;22.13;58.53;96727.78;5058973;28;20949;-75
2023/09/21 08:54:42;;;;;;;3.07;2.80;;;;;;;22.02;57.71;96734.66;5061344;28;20547;-75
2023/09/21 08:57:11;;;;;;;3.23;2.87;;;;;;;22.30;58.21;96737.38;5048968;28;20462;-75
2023/09/21 08:59:41;;;;;;;4.30;2.77;;;;;;;22.69;57.30;96737.56;5063851;28;20541;-76
2023/09/21 09:02:10;;;;;;;4.50;2.83;;;;;;;23.00;56.05;96747.91;5065008;28;20454;-75
2023/09/21 09:04:37;;;;;;;4.77;3.10;;;;;;;22.83;55.50;96733.97;5064068;28;20459;-75
2023/09/21 09:07:04;;;;;;;4.23;3.10;;;;;;;23.09;54.95;96740.47;5061748;28;20502;-75
2023/09/21 09:09:32;;;;;;;3.43;3.00;;;;;;;23.37;54.23;96736.44;5051259;28;21264;-75
2023/09/21 09:12:01;;;;;;;2.60;2.40;;;;;;;23.51;54.10;96730.00;5060405;28;21084;-75
2023/09/21 09:14:28;;;;;;;4.13;2.90;;;;;;;24.09;53.13;96725.03;5062217;28;20471;-75
2023/09/21 09:16:55;;;;;;;3.33;2.53;;;;;;;24.57;51.57;96735.25;5066396;28;20511;-75
2023/09/21 09:19:22;;;;;;;6.17;3.00;;;;;;;25.52;48.20;96712.19;5067681;28;20845;-75
2023/09/21 09:21:52;;;;;;;5.97;3.97;;;;;;;26.23;46.93;96704.06;5063267;28;20508;-75
2023/09/21 09:24:22;;;;;;;44.17;12.47;;;;;;;26.23;46.96;96702.09;5057576;28;20507;-75
2023/09/21 09:26:49;;;;;;;4.70;3.10;;;;;;;25.94;47.46;96697.38;5063662;28;20509;-75
2023/09/21 09:29:17;;;;;;;3.00;2.70;;;;;;;26.01;46.69;96692.09;5061737;28;20833;-75
2023/09/21 09:31:44;;;;;;;4.77;3.57;;;;;;;25.91;47.42;96689.72;5060658;28;20783;-75
2023/09/21 09:34:16;;;;;;;4.10;2.90;;;;;;;25.96;46.96;96685.94;5057608;28;20549;-76
2023/09/21 09:36:43;;;;;;;4.10;3.07;;;;;;;25.74;47.29;96673.16;5056687;28;20474;-75
2023/09/21 09:39:14;;;;;;;5.37;2.90;;;;;;;25.65;47.57;96672.41;5049427;28;20462;-75
2023/09/21 09:41:41;;;;;;;2.57;2.37;;;;;;;24.99;48.53;96666.41;5065086;28;20822;-75
2023/09/21 09:44:09;;;;;;;3.17;2.87;;;;;;;25.24;48.32;96673.00;5066168;28;20557;-75
2023/09/21 09:46:41;;;;;;;2.57;2.37;;;;;;;25.38;47.38;96670.81;5066560;28;20577;-75
2023/09/21 09:49:09;;;;;;;3.83;2.47;;;;;;;25.50;47.64;96670.13;5065171;28;21108;-75
2023/09/21 09:51:38;;;;;;;2.90;2.70;;;;;;;25.86;46.02;96673.25;5067027;28;20489;-75
2023/09/21 09:54:08;;;;;;;3.83;2.57;;;;;;;26.16;45.33;96667.69;5063023;28;20943;-75
2023/09/21 09:56:40;;;;;;;5.33;2.73;;;;;;;25.93;45.74;96664.44;5062602;28;20478;-74
2023/09/21 09:59:07;;;;;;;2.77;2.33;;;;;;;26.54;44.42;96668.44;5062896;28;20454;-76
2023/09/21 10:01:37;;;;;;;2.53;2.33;;;;;;;26.65;44.12;96663.25;5060228;28;20458;-75
2023/09/21 10:04:07;;;;;;;3.80;2.70;;;;;;;26.50;43.95;96661.94;5063097;28;20462;-75
2023/09/21 10:06:35;;;;;;;3.13;2.83;;;;;;;27.10;42.38;96646.69;5066890;28;20470;-75
2023/09/21 10:09:09;;;;;;;4.20;2.23;;;;;;;28.73;40.17;96649.19;5064543;28;20525;-72
2023/09/21 10:11:38;;;;;;;2.50;2.30;;;;;;;29.23;38.99;96636.69;5066557;28;20532;-76
2023/09/21 10:14:07;;;;;;;3.10;2.80;;;;;;;28.97;37.64;96639.13;5067448;28;20454;-75
2023/09/21 10:16:38;;;;;;;2.80;2.27;;;;;;;29.13;37.60;96622.47;5066932;28;20558;-75
2023/09/21 10:19:16;;;;;;;3.97;2.60;;;;;;;29.27;36.75;96626.41;5061375;28;20465;-74
2023/09/21 10:21:45;;;;;;;5.70;2.40;;;;;;;29.14;37.75;96616.53;5063892;28;20980;-75
2023/09/21 10:24:18;;;;;;;2.10;2.00;;;;;;;28.51;38.69;96627.47;5062202;28;20450;-75
2023/09/21 10:26:49;;;;;;;2.40;2.20;;;;;;;28.40;39.07;96632.72;5064070;28;20478;-75
2023/09/21 10:29:19;;;;;;;2.77;2.37;;;;;;;28.36;39.63;96619.84;5062831;28;20676;-75
2023/09/21 10:31:47;;;;;;;3.90;2.47;;;;;;;27.80;40.78;96616.91;5062288;28;20826;-74
2023/09/21 10:34:18;;;;;;;3.67;3.00;;;;;;;27.48;40.84;96620.59;5045616;28;20446;-74
2023/09/21 10:36:50;;;;;;;5.90;3.00;;;;;;;27.01;42.80;96615.41;5060745;28;20504;-74
2023/09/21 10:39:32;;;;;;;5.17;2.57;;;;;;;26.99;41.52;96601.84;5060973;28;20461;-74
2023/09/21 10:42:33;;;;;;;3.40;2.63;;;;;;;27.20;42.52;96610.13;5054869;28;20810;-74
2023/09/21 10:45:05;;;;;;;2.80;2.30;;;;;;;27.52;40.45;96602.06;5051623;28;20477;-74
2023/09/21 10:47:38;;;;;;;3.27;3.07;;;;;;;28.06;40.03;96600.66;5052725;28;20465;-74
2023/09/21 10:50:10;;;;;;;3.90;2.37;;;;;;;28.01;39.53;96600.06;5060090;28;20492;-74
2023/09/21 10:52:39;;;;;;;3.00;2.80;;;;;;;28.20;38.55;96588.34;5059997;28;20469;-75
2023/09/21 10:55:08;;;;;;;11.90;4.43;;;;;;;28.63;37.67;96595.97;5063377;28;20477;-74
2023/09/21 10:57:34;;;;;;;3.57;2.77;;;;;;;29.01;37.23;96578.75;5055974;28;20450;-74
2023/09/21 11:00:07;;;;;;;20.33;8.90;;;;;;;29.08;38.42;96573.38;5054038;28;20455;-74
2023/09/21 11:02:35;;;;;;;3.33;3.10;;;;;;;29.44;36.77;96577.09;5053881;28;21043;-74
2023/09/21 11:05:03;;;;;;;2.50;2.30;;;;;;;29.75;35.78;96571.47;5054474;28;21093;-74
2023/09/21 11:07:32;;;;;;;2.80;2.60;;;;;;;29.88;35.48;96572.19;5050929;28;20459;-74
2023/09/21 11:09:59;;;;;;;2.50;2.30;;;;;;;30.23;35.75;96566.59;5057571;28;20450;-74
2023/09/21 11:12:26;;;;;;;2.40;2.20;;;;;;;30.27;34.87;96562.72;5050287;28;20507;-74
2023/09/21 11:14:53;;;;;;;3.43;2.50;;;;;;;30.27;33.24;96564.69;5050541;28;20598;-74
2023/09/21 11:17:20;;;;;;;2.30;2.10;;;;;;;29.85;34.88;96568.13;5058834;28;20466;-74
2023/09/21 11:19:47;;;;;;;2.27;2.07;;;;;;;29.14;35.18;96565.56;5065373;28;20464;-74
2023/09/21 11:22:15;;;;;;;3.33;2.23;;;;;;;29.53;34.78;96549.84;5064356;28;20446;-74
2023/09/21 11:24:43;;;;;;;2.30;2.10;;;;;;;30.20;34.26;96550.59;5062286;28;20474;-73
2023/09/21 11:27:11;;;;;;;5.03;4.63;;;;;;;29.93;35.25;96550.38;5064954;28;20902;-74
2023/09/21 11:29:40;;;;;;;7.20;4.90;;;;;;;30.17;33.43;96551.31;5048054;28;20915;-74
2023/09/21 11:32:08;;;;;;;5.93;3.10;;;;;;;30.16;34.12;96549.72;5056919;28;20524;-75
2023/09/21 11:34:36;;;;;;;2.33;2.13;;;;;;;30.06;32.85;96543.53;5051589;28;20530;-76
2023/09/21 11:37:03;;;;;;;2.50;2.30;;;;;;;29.20;34.92;96548.22;5061910;28;20470;-75
2023/09/21 11:39:30;;;;;;;2.97;2.00;;;;;;;29.02;34.93;96535.78;5063204;28;20463;-75